Victor Herrera

Chefscout - Cortulua
3 Apr 2027
Samstag
Verarbeitung

Persönlichkeit

Anpassungsfähigkeit (18) Ehrgeiz (1) Kontroverse (15) Loyalität (5) Druck (11) Professionalität (11) Fairness (12) Temperament (18)

Profil

Trainerstil Demokratisch
Lizenz Kontinentale B
Entschlossenheit 11
Menschenführung 5
Motivation 8
Disziplin 10
Arbeitszufriedenheit
49%
Ermüdung
0%
Rolle Chefscout
Gehalt 10.6K p/W
Vertrag 14.03.2029

Leistung

Verhalten Normal
Trainingseffektivität
17%
Spielerentwicklung
55%
Verletzungsprävention
15%
Taktische Umsetzung
20%

Letzte Ereignisse

Nahm an einer Scouting-Besprechung teil jetzt
Empfahl ein Transferziel jetzt
Nahm an einer Scouting-Besprechung teil jetzt
Nahm an einer Scouting-Besprechung teil jetzt
Nahm an einer Scouting-Besprechung teil jetzt
Nahm an einer Scouting-Besprechung teil jetzt
Nahm an einer Scouting-Besprechung teil jetzt
Nahm an einer Scouting-Besprechung teil jetzt

Aktuell beobachtet

152
Spieler Verein Status Fähigkeit Vertrauen Beobachtet Zuletzt beobachtet Letzte Stimme
Job Ochieng Real Sociedad Aktiv 115 / 117 40% 6 01.04.2027 -
Adnan Courtois KV Oostende Aktiv 121 / 135 40% 3 01.04.2027 -
Jovon Makama Norwich City Aktiv 126 / 117 40% 2 01.04.2027 -
Jerónimo Porto Lapegüe Slask Aktiv 118 / 99 40% 3 30.03.2027 Mehr Infos nötig
Salah Mohsen El Masry Aktiv 130 / 105 40% 3 30.03.2027 -
Dani Gómez Zaragoza Aktiv 130 / 108 40% 3 30.03.2027 -
Diego Valencia Gornik Leczna Aktiv 113 / 113 40% 6 26.03.2027 -
Felipe Fernández Vorskla Aktiv 114 / 110 40% 3 26.03.2027 -
Karlan Grant West Bromwich Albion Aktiv 110 / 130 40% 1 26.03.2027 -
Haji Wright Coventry City Aktiv 143 / 138 40% 2 24.03.2027 -
Konan N'Dri Lecce Aktiv 137 / 126 40% 1 24.03.2027 -
Taiwo Awoniyi Coventry City Aktiv 144 / 140 40% 6 23.03.2027 -
Patson Daka Leicester City Aktiv 125 / 126 40% 1 21.03.2027 -
Sam Nombe Milton Keynes Dons Aktiv 122 / 101 40% 2 20.03.2027 -
Bertrand Traoré Sunderland Aktiv 125 / 138 40% 3 20.03.2027 -
Jean-Luc Morin Tours Aktiv 132 / 134 40% 5 16.03.2027 -
George Hirst Stoke City Aktiv 135 / 139 40% 7 16.03.2027 -
Everton Bala Levski Aktiv 136 / 124 40% 2 15.03.2027 -
Rumarn Burrell Queens Park Rangers Aktiv 130 / 120 40% 1 15.03.2027 -
Seidu Basit Ashanti Gold Aktiv 82 / 92 40% 4 14.03.2027 -
Simone Rabbi Ravenna Aktiv 122 / 105 40% 2 14.03.2027 -
Niall Ennis Blackpool Aktiv 101 / 111 40% 2 14.03.2027 -
Matty Stevens AFC Wimbledon Aktiv 119 / 98 40% 3 12.03.2027 -
Dany Mota Monza Aktiv 144 / 127 40% 3 12.03.2027 -
Luis Vázquez Birmingham Aktiv 126 / 127 40% 1 12.03.2027 -
John Yeboah Venezia Aktiv 120 / 128 40% 1 10.03.2027 -
Yousef Salech Cardiff City Aktiv 140 / 127 40% 2 09.03.2027 -
Emil Riis Bristol City Aktiv 133 / 121 40% 1 08.03.2027 -
Malik Mothersille Stockport County Aktiv 112 / 123 40% 3 06.03.2027 -
Kyle Wootton Stockport County Aktiv 125 / 116 40% 1 06.03.2027 -
Joe Gelhardt Hull City Aktiv 141 / 128 40% 2 05.03.2027 -
Elijah Adebayo Luton Town Aktiv 117 / 118 40% 3 05.03.2027 -
Kwame Opoku Asante Kotoko Aktiv 110 / 107 40% 2 02.03.2027 -
Josh Coburn Millwall Aktiv 114 / 124 40% 3 28.02.2027 -
Martín Pino Antalyaspor Aktiv 116 / 122 40% 1 28.02.2027 -
Dom Ballard Leyton Orient Aktiv 133 / 130 40% 4 27.02.2027 -
Mihailo Ivanović Millwall Aktiv 115 / 121 40% 1 26.02.2027 -
Ivan Luquetta Neftekhimik Aktiv 87 / 103 40% 2 25.02.2027 -
Alexandr Sojka Viktoria Plzen Aktiv 135 / 128 40% 2 24.02.2027 -
Oli McBurnie Hull City Aktiv 130 / 132 40% 2 21.02.2027 -
Martín Álvarez Barnsley Aktiv 122 / 108 40% 5 15.02.2027 -
John Okoye Ebuka Ittihad Aktiv 111 / 117 40% 1 14.02.2027 -
Stephen Amankona Aduana Stars Aktiv 83 / 94 40% 1 14.02.2027 -
Harry Cornick AFC Wimbledon Aktiv 95 / 103 40% 1 11.02.2027 -
Nardin Mulahusejnović Vojvodina Aktiv 117 / 118 40% 1 03.02.2027 -
Lorent Tolaj Plymouth Argyle Aktiv 112 / 124 40% 4 02.02.2027 -
Erik Prekop Gornik Zabrze Aktiv 134 / 132 40% 1 01.02.2027 -
Morgan Whittaker Middlesbrough Aktiv 135 / 139 40% 1 26.01.2027 -
Iwan Morgan Grimsby Town Aktiv 105 / 121 40% 1 24.01.2027 -
Daniel Vašulín Zbrojovka Brno Aktiv 107 / 115 40% 1 22.01.2027 -
Bienvenue Kanakimana Zbrojovka Brno Aktiv 108 / 118 40% 1 19.01.2027 -
Mauro Valiente Estudiantes Aktiv 108 / 108 40% 3 17.01.2027 -
Marcus Browne AFC Wimbledon Aktiv 106 / 113 40% 1 16.01.2027 -
Danyil Alefirenko Chornomorets Aktiv 95 / 104 40% 1 16.01.2027 -
Franco Fagúndez Estudiantes Aktiv 112 / 121 40% 5 15.01.2027 -
Alexandr Dolgov Amkar Aktiv 81 / 96 40% 1 09.01.2027 -
Edarlyn Reyes Arsenal Tula Aktiv 120 / 103 40% 1 09.01.2027 -
Bogdan Petrović TSC Aktiv 108 / 107 40% 1 06.01.2027 -
Marcelo Estigarribia Unión de Santa Fe Aktiv 114 / 125 40% 2 05.01.2027 -
Bohdan Viunnyk Lechia Aktiv 114 / 115 40% 1 04.01.2027 -
Lazar Tufegdžić Cukaricki Aktiv 120 / 105 40% 1 04.01.2027 -
Facundo Castro Nueva Chicago Aktiv 121 / 106 40% 4 28.12.2026 -
Humberto García Real Cartagena Verhandlung 86 / 100 62% 1 07.12.2026 Befürworten
Emilio Pardo Llaneros Verloren 76 / 87 62% 1 01.12.2026 -
Octavio Bianchi HNK Vukovar 1991 Aktiv 107 / 115 40% 2 30.11.2026 -
Mauro Méndez Tigre Aktiv 125 / 115 40% 2 30.11.2026 -
Lucas Cano All Boys Aktiv 105 / 106 40% 2 28.11.2026 -
Luciano Cosentino Wanderers Aktiv 127 / 124 40% 2 28.11.2026 -
Ezequiel Almirón Estudiantes Aktiv 113 / 120 40% 1 26.11.2026 -
Edwar López Deportes Tolima Aktiv 110 / 123 40% 2 23.11.2026 -
David Barbona Defensa y Justicia Aktiv 131 / 126 40% 4 18.11.2026 -
Assad Al Hamlawi Universitatea Craiova Aktiv 131 / 114 40% 1 18.11.2026 -
Lucas Varaldo Central Córdoba SdE Aktiv 117 / 116 40% 1 17.11.2026 Mehr Infos nötig
Lautaro Gordillo Colegiales Aktiv 109 / 104 40% 1 16.11.2026 -
Rodin Quiñónes Dinamo Batumi Aktiv 116 / 117 40% 3 15.11.2026 -
Rodrigo Bogarín Barracas Central Aktiv 124 / 117 40% 1 11.11.2026 -
Michael Vadulli Audax Italiano Aktiv 110 / 106 40% 3 09.11.2026 -
Agustín Hausch Defensa y Justicia Aktiv 112 / 121 40% 1 08.11.2026 -
Facundo Krüger Temperley Aktiv 116 / 112 40% 2 05.11.2026 Mehr Infos nötig
Nicolás Sosa Racing Aktiv 105 / 119 40% 2 05.11.2026 Mehr Infos nötig
Renzo Reynaga Patronato Aktiv 117 / 106 40% 1 04.11.2026 Mehr Infos nötig
Lucio Castillo Colegiales Aktiv 112 / 106 40% 1 04.11.2026 -
Jefry Zapata Once Caldas Aktiv 125 / 111 40% 1 03.11.2026 Mehr Infos nötig
Guido Mainero Platense Aktiv 117 / 126 40% 1 03.11.2026 Mehr Infos nötig
Oscar Garrido Dukla Prague Aktiv 129 / 111 40% 1 03.11.2026 -
Álex Arce Independiente Rivadavia Aktiv 119 / 123 40% 3 01.11.2026 -
Facundo Pons San Martín Aktiv 121 / 117 40% 2 31.10.2026 -
Nicolás Contín Gimnasia y Tiro Aktiv 109 / 111 40% 2 27.10.2026 -
Favio Cabral Mitre Aktiv 110 / 110 40% 3 25.10.2026 -
Tiago Pucciarelli FK Senica Aktiv 114 / 104 40% 2 25.10.2026 -
Justo Giani Universidad Catolica Aktiv 112 / 120 40% 3 23.10.2026 -
Santiago Sala Güemes Aktiv 104 / 114 40% 1 23.10.2026 -
Claudio Villagra Godoy Cruz Aktiv 103 / 116 40% 1 22.10.2026 -
Santiago Rodríguez Gimnasia y Esgrima Aktiv 117 / 119 40% 2 19.10.2026 -
Lucas González Estudiantes Aktiv 105 / 115 40% 1 19.10.2026 -
Cristian Barros Cerro Aktiv 114 / 107 40% 3 17.10.2026 -
Juan Rocca Gimnasia y Tiro Aktiv 109 / 113 40% 1 17.10.2026 -
Enzo González Defensores Aktiv 113 / 97 40% 2 16.10.2026 -
Federico Martínez Liverpool Montevideo Aktiv 122 / 115 40% 2 16.10.2026 -
Luca Martínez Dupuy Godoy Cruz Aktiv 123 / 113 40% 1 13.10.2026 -
Alejandro Melo Temperley Aktiv 124 / 108 40% 1 12.10.2026 -
Jonathan Bay San Miguel Aktiv 109 / 115 40% 1 11.10.2026 -
Martín Campos Ferro Carril Oeste Aktiv 116 / 121 40% 1 11.10.2026 -
Tomás Bolzicco Chaco For Ever Aktiv 115 / 105 40% 1 11.10.2026 -
Lucas Rodríguez Aldosivi Aktiv 111 / 116 40% 1 08.10.2026 -
Matías Sosa Arsenal Aktiv 109 / 108 40% 1 08.10.2026 -
Thiago Calone All Boys Aktiv 120 / 118 40% 1 08.10.2026 -
Ruyery Blanco Alianza Petrolera Aktiv 106 / 104 40% 2 06.10.2026 -
Matías Fernández Independiente Rivadavia Aktiv 113 / 120 40% 1 05.10.2026 -
Bruno Pittón Unión de Santa Fe Aktiv 123 / 116 40% 1 05.10.2026 -
Alejo Cruz Juventud Aktiv 127 / 113 40% 1 01.10.2026 -
Marcelo Torres Gimnasia La Plata Aktiv 124 / 122 40% 1 26.09.2026 -
Enzo Avaro Mitre Aktiv 104 / 114 40% 1 23.09.2026 -
Facundo de León Progreso Aktiv 110 / 107 40% 1 21.09.2026 -
Agustín Venezia Iquique Aktiv 106 / 112 40% 3 19.09.2026 -
Javi Zarzo Viitorul Aktiv 100 / 91 40% 1 19.09.2026 -
Leandro Suhr Boston River Aktiv 115 / 114 40% 1 16.09.2026 -
Franco Déboli Slaven Belupo Aktiv 98 / 107 40% 1 16.09.2026 -
Ramiro Ruiz Rodríguez Atlético Tucumán Aktiv 112 / 120 40% 2 14.09.2026 -
Marcos Camarda Santiago Wanderers Aktiv 97 / 110 40% 1 14.09.2026 -
Johar Mejía Rapid Wien Aktiv 117 / 117 40% 3 13.09.2026 -
Duk Atlas Aktiv 130 / 104 40% 2 13.09.2026 -
Ekain Orobengoa Real Sociedad Aktiv 85 / 97 40% 1 10.09.2026 -
Matías Gallegos Antofagasta Aktiv 94 / 105 40% 1 09.09.2026 -
José Rivera Universitario Aktiv 120 / 118 40% 1 09.09.2026 -
Jonathan Cañete Portuguesa Aktiv 120 / 105 40% 1 07.09.2026 -
Harold Santiago Mosquera Cerro Porteno Aktiv 129 / 124 40% 2 06.09.2026 -
Nahuel Luján Sport Huancayo Aktiv 113 / 112 40% 2 04.09.2026 -
César Magallan Estudiantes de Merida Aktiv 115 / 106 40% 1 04.09.2026 -
Mourad Tijuana Aktiv 122 / 116 40% 1 02.09.2026 -
Richard Figueroa Deportivo Lara Aktiv 101 / 103 40% 1 29.08.2026 -
Brayan Alcócer Rubin Aktiv 94 / 99 40% 1 28.08.2026 -
Maximiliano Rodríguez Huachipato Aktiv 105 / 107 40% 1 28.08.2026 -
Ronny Maza Aragua Aktiv 104 / 96 40% 3 27.08.2026 -
Jeriel De Santis Caracas Aktiv 96 / 104 40% 1 26.08.2026 -
Kevin Méndez Union La Calera Aktiv 107 / 103 40% 2 24.08.2026 -
José Rivas Gamboa Trujillanos Aktiv 100 / 93 40% 1 18.08.2026 -
Arnaldo Castillo O'Higgins Aktiv 107 / 100 40% 1 17.08.2026 -
Clemente Montes Universidad Catolica Aktiv 123 / 115 40% 2 16.08.2026 -
Ronaldo Peña Deportivo Lara Aktiv 108 / 100 40% 1 16.08.2026 -
Luis Ramos Alianza Lima Aktiv 110 / 117 40% 1 15.08.2026 -
Cristian Duma HNK Rijeka Aktiv 96 / 109 40% 1 15.08.2026 -
Genaro Rossi San Martín SJ Aktiv 99 / 102 40% 1 12.08.2026 -
Junior Paredes Trujillanos Aktiv 103 / 101 40% 1 11.08.2026 -
Rodrigo Pollero Deportivo Tachira Aktiv 113 / 107 40% 2 08.08.2026 -
Gustavo Aguilar Libertad Aktiv 102 / 101 40% 1 08.08.2026 -
Adalberto Peñaranda Deportivo Tachira Aktiv 117 / 118 40% 1 07.08.2026 -
Nicolás Orellana Audax Italiano Aktiv 104 / 112 40% 1 06.08.2026 -
Marcelo Fernández Libertad Aktiv 112 / 117 40% 1 05.08.2026 -
Jhojan Julio Queretaro Aktiv 124 / 114 40% 1 05.08.2026 -
Misael Sosa Godoy Cruz Aktiv 122 / 110 40% 1 01.08.2026 -
Juan Otero Gijón Aktiv 139 / 126 40% 1 01.08.2026 -